Time;durP1;ratioP1;P1;durP2;ratioP2;P2;SDS_P1;SDS_P2;PMS_P1;PMS_P2;Temp;Humidity;BMP_temperature;BMP_pressure;BME280_temperature;BME280_humidity;BME280_pressure;Samples;Min_cycle;Max_cycle;Signal;HPM_P1;HPM_P2
2021/04/17 00:00:49;;;;;;;2.58;1.50;;;;;;;8.68;44.67;101851.25;5085473;28;20024;-61
2021/04/17 00:03:15;;;;;;;5.05;1.60;;;;;;;8.65;44.75;101850.31;5085423;28;20104;-60
2021/04/17 00:05:40;;;;;;;3.35;1.63;;;;;;;8.66;44.87;101846.88;5085199;28;20024;-61
2021/04/17 00:08:05;;;;;;;4.47;1.25;;;;;;;8.64;44.69;101852.00;5085128;28;20109;-61
2021/04/17 00:10:31;;;;;;;2.25;1.63;;;;;;;8.64;44.84;101840.81;5085252;28;20080;-62
2021/04/17 00:12:56;;;;;;;4.80;1.70;;;;;;;8.63;44.82;101839.91;5084922;28;20033;-61
2021/04/17 00:15:22;;;;;;;5.22;1.90;;;;;;;8.63;44.92;101839.03;5085076;28;20028;-60
2021/04/17 00:17:47;;;;;;;7.65;1.58;;;;;;;8.65;44.82;101843.44;5083723;28;20066;-61
2021/04/17 00:20:13;;;;;;;3.40;1.73;;;;;;;8.61;44.94;101832.97;5085159;28;20024;-62
2021/04/17 00:22:39;;;;;;;5.07;1.40;;;;;;;8.55;44.96;101820.75;5085125;28;20475;-61
2021/04/17 00:25:05;;;;;;;3.53;1.45;;;;;;;8.59;45.04;101827.75;5084871;28;20044;-61
2021/04/17 00:27:30;;;;;;;3.90;1.50;;;;;;;8.58;44.96;101830.31;5084765;28;20192;-61
2021/04/17 00:29:56;;;;;;;7.30;1.70;;;;;;;8.53;45.21;101817.25;5084903;28;20020;-60
2021/04/17 00:32:21;;;;;;;4.15;1.48;;;;;;;8.58;45.29;101833.75;5084881;28;20111;-61
2021/04/17 00:34:46;;;;;;;2.67;1.40;;;;;;;8.59;45.12;101827.75;5085135;28;20465;-61
2021/04/17 00:37:12;;;;;;;3.55;1.50;;;;;;;8.58;45.07;101826.00;5083405;28;20048;-61
2021/04/17 00:39:38;;;;;;;4.57;1.70;;;;;;;8.56;45.21;101825.09;5083441;28;20615;-61
2021/04/17 00:42:05;;;;;;;4.32;1.60;;;;;;;8.60;45.02;101829.50;5084352;28;20029;-61
2021/04/17 00:44:30;;;;;;;4.30;1.60;;;;;;;8.59;45.23;101820.00;5084891;28;20108;-61
2021/04/17 00:46:56;;;;;;;3.60;1.58;;;;;;;8.57;45.08;101813.00;5083273;28;20012;-61
2021/04/17 00:49:21;;;;;;;3.33;1.45;;;;;;;8.56;45.13;101822.50;5084381;28;20041;-61
2021/04/17 00:51:47;;;;;;;3.33;1.80;;;;;;;8.54;45.30;101813.78;5084566;28;20027;-62
2021/04/17 00:54:12;;;;;;;5.13;1.52;;;;;;;8.51;45.48;101817.19;5084275;28;20045;-61
2021/04/17 00:56:38;;;;;;;2.95;1.30;;;;;;;8.47;45.73;101822.25;5083923;28;20074;-61
2021/04/17 00:59:04;;;;;;;4.03;1.60;;;;;;;8.44;45.66;101817.88;5084548;28;20477;-61
2021/04/17 01:01:29;;;;;;;4.43;1.58;;;;;;;8.43;45.75;101819.59;5084463;28;20085;-62
2021/04/17 01:04:15;;;;;;;3.83;1.63;;;;;;;8.42;45.57;101820.44;5084313;28;20028;-62
2021/04/17 01:06:52;;;;;;;4.38;1.40;;;;;;;8.41;45.82;101821.28;5083141;28;20028;-61
2021/04/17 01:09:33;;;;;;;4.00;1.70;;;;;;;8.39;45.94;101819.47;5084135;28;20501;-61
2021/04/17 01:12:10;;;;;;;5.38;1.55;;;;;;;8.36;45.83;101817.69;5084112;28;20055;-62
2021/04/17 01:14:37;;;;;;;6.55;1.83;;;;;;;8.37;45.94;101821.19;5084098;28;20031;-61
2021/04/17 01:17:05;;;;;;;3.00;1.58;;;;;;;8.33;46.11;101815.03;5083996;28;20031;-61
2021/04/17 01:19:48;;;;;;;3.80;1.60;;;;;;;8.35;45.76;101813.38;5084109;28;20020;-62
2021/04/17 01:22:18;;;;;;;2.47;1.50;;;;;;;8.33;45.89;101825.41;5084093;28;20052;-61
2021/04/17 01:24:46;;;;;;;3.42;1.30;;;;;;;8.33;45.85;101819.34;5083910;28;20535;-61
2021/04/17 01:27:11;;;;;;;11.43;1.83;;;;;;;8.31;45.92;101821.88;5083491;28;20033;-61
2021/04/17 01:29:42;;;;;;;3.88;1.60;;;;;;;8.32;45.90;101823.66;5083669;28;20089;-61
2021/04/17 01:32:14;;;;;;;2.22;1.23;;;;;;;8.30;46.13;101826.22;5083839;28;20054;-61
2021/04/17 01:34:41;;;;;;;3.30;1.65;;;;;;;8.29;46.13;101824.44;5083682;28;20032;-61
2021/04/17 01:37:09;;;;;;;2.42;1.40;;;;;;;8.29;46.11;101827.03;5083874;28;20021;-61
2021/04/17 01:39:35;;;;;;;5.50;1.67;;;;;;;8.32;46.42;101823.66;5083724;28;20328;-62
2021/04/17 01:42:04;;;;;;;5.53;1.70;;;;;;;8.30;46.15;101823.63;5083588;28;20198;-62
2021/04/17 01:44:34;;;;;;;5.43;1.85;;;;;;;8.33;46.16;101820.22;5083749;28;20020;-62
2021/04/17 01:47:05;;;;;;;2.72;1.27;;;;;;;8.31;46.15;101825.34;5083741;28;20024;-62
2021/04/17 01:49:33;;;;;;;3.67;1.60;;;;;;;8.27;46.02;101825.25;5083465;28;20057;-62
2021/04/17 01:52:01;;;;;;;3.38;1.23;;;;;;;8.24;46.24;101826.03;5083483;28;20454;-62
2021/04/17 01:54:30;;;;;;;3.60;1.52;;;;;;;8.23;46.10;101829.47;5083662;28;20025;-63
2021/04/17 01:56:59;;;;;;;2.08;1.30;;;;;;;8.16;46.18;101825.00;5083081;28;20024;-63
2021/04/17 01:59:27;;;;;;;3.20;1.60;;;;;;;8.16;46.18;101822.41;5083536;28;20028;-63
2021/04/17 02:01:53;;;;;;;5.72;1.92;;;;;;;8.18;46.21;101825.88;5083721;28;20150;-63
2021/04/17 02:04:18;;;;;;;3.88;1.40;;;;;;;8.18;45.87;101831.94;5083726;28;20017;-63
2021/04/17 02:06:44;;;;;;;3.05;1.55;;;;;;;8.12;45.99;101821.44;5083341;28;20505;-63
2021/04/17 02:09:09;;;;;;;3.00;1.35;;;;;;;8.12;46.07;101821.44;5083171;28;20088;-63
2021/04/17 02:11:35;;;;;;;3.35;1.45;;;;;;;8.11;46.14;101822.28;5083123;28;20128;-62
2021/04/17 02:14:01;;;;;;;3.75;1.60;;;;;;;8.12;46.37;101818.88;5083474;28;20387;-63
2021/04/17 02:16:38;;;;;;;2.78;1.45;;;;;;;8.08;46.70;101826.50;5083532;28;20067;-62
2021/04/17 02:19:09;;;;;;;2.35;1.50;;;;;;;8.03;46.73;101824.69;5087198;28;20013;-63
2021/04/17 02:21:38;;;;;;;3.25;1.38;;;;;;;8.01;46.79;101821.19;5087735;28;20024;-62
2021/04/17 02:24:05;;;;;;;4.47;1.58;;;;;;;7.99;46.72;101824.56;5087539;28;20427;-63
2021/04/17 02:26:31;;;;;;;2.22;1.30;;;;;;;7.98;46.88;101812.47;5087055;28;20021;-63
2021/04/17 02:28:57;;;;;;;3.40;1.70;;;;;;;7.91;46.72;101809.72;5087124;28;20059;-63
2021/04/17 02:31:27;;;;;;;3.45;1.40;;;;;;;7.95;46.70;101813.28;5087043;28;20020;-62
2021/04/17 02:33:52;;;;;;;4.43;1.35;;;;;;;7.90;46.71;101810.56;5087322;28;20084;-63
2021/04/17 02:36:17;;;;;;;3.28;1.30;;;;;;;7.89;46.68;101803.63;5086973;28;20025;-60
2021/04/17 02:38:43;;;;;;;2.90;1.30;;;;;;;7.86;46.51;101798.38;5086764;28;20199;-61
2021/04/17 02:41:09;;;;;;;3.88;1.40;;;;;;;7.85;46.51;101801.81;5085762;28;20032;-62
2021/04/17 02:43:35;;;;;;;3.22;1.13;;;;;;;7.81;46.33;101794.84;5086669;28;20028;-63
2021/04/17 02:46:00;;;;;;;5.82;1.42;;;;;;;7.74;46.41;101791.22;5087139;28;20027;-63
2021/04/17 02:48:25;;;;;;;5.45;1.40;;;;;;;7.74;46.17;101795.50;5086738;28;20123;-63
2021/04/17 02:50:51;;;;;;;3.25;1.40;;;;;;;7.71;45.97;101793.72;5086819;28;20083;-62
2021/04/17 02:53:16;;;;;;;4.22;1.30;;;;;;;7.59;45.91;101786.50;5086866;28;20020;-63
2021/04/17 02:55:41;;;;;;;1.92;1.30;;;;;;;7.60;46.11;101787.38;5085277;28;20036;-63
2021/04/17 02:58:07;;;;;;;2.65;1.20;;;;;;;7.55;45.97;101797.59;5086242;28;20025;-61
2021/04/17 03:00:33;;;;;;;5.88;1.35;;;;;;;7.56;45.85;101794.16;5086696;28;20052;-61
2021/04/17 03:02:58;;;;;;;2.97;1.15;;;;;;;7.50;45.94;101789.72;5086637;28;20029;-61
2021/04/17 03:05:23;;;;;;;1.60;1.00;;;;;;;7.44;45.74;101785.25;5086686;28;20047;-61
2021/04/17 03:07:49;;;;;;;4.72;1.33;;;;;;;7.44;45.63;101793.00;5086379;28;20044;-62
2021/04/17 03:10:15;;;;;;;3.78;1.38;;;;;;;7.47;45.60;101788.75;5086471;28;20473;-62
2021/04/17 03:12:40;;;;;;;5.20;1.50;;;;;;;7.47;45.75;101791.34;5084806;28;20019;-62
2021/04/17 03:15:08;;;;;;;3.80;1.40;;;;;;;7.47;45.65;101787.06;5086582;28;20027;-61
2021/04/17 03:17:34;;;;;;;2.88;1.00;;;;;;;7.47;45.64;101789.66;5086325;28;20020;-62
2021/04/17 03:19:59;;;;;;;3.58;1.65;;;;;;;7.43;45.91;101786.09;5086306;28;20052;-63
2021/04/17 03:22:25;;;;;;;5.03;1.65;;;;;;;7.41;45.86;101786.91;5086139;28;20017;-62
2021/04/17 03:24:50;;;;;;;2.63;1.42;;;;;;;7.39;46.03;101788.56;5086305;28;20113;-62
2021/04/17 03:27:16;;;;;;;2.38;1.27;;;;;;;7.38;46.08;101789.41;5085921;28;20034;-62
2021/04/17 03:29:41;;;;;;;2.75;1.58;;;;;;;7.28;46.46;101788.28;5085025;28;20056;-62
2021/04/17 03:32:07;;;;;;;4.28;1.30;;;;;;;7.25;46.82;101794.22;5086113;28;20028;-61
2021/04/17 03:34:32;;;;;;;3.22;1.48;;;;;;;7.18;47.04;101803.53;5086021;28;20027;-62
2021/04/17 03:36:58;;;;;;;4.82;1.60;;;;;;;7.13;47.33;101802.50;5085851;28;20050;-61
2021/04/17 03:39:24;;;;;;;4.05;1.17;;;;;;;7.02;47.33;101791.88;5086180;28;20054;-61
2021/04/17 03:41:49;;;;;;;4.05;1.05;;;;;;;6.99;47.45;101802.09;5085745;28;20030;-62
2021/04/17 03:44:15;;;;;;;3.13;1.60;;;;;;;6.93;47.76;101792.47;5085895;28;20028;-62
2021/04/17 03:46:40;;;;;;;1.90;1.08;;;;;;;6.92;48.07;101795.88;5085864;28;20028;-61
2021/04/17 03:49:05;;;;;;;2.97;1.40;;;;;;;6.88;48.25;101793.16;5085488;28;20051;-62
2021/04/17 03:51:31;;;;;;;3.38;1.00;;;;;;;6.85;48.25;101793.97;5085792;28;20041;-62
2021/04/17 03:53:56;;;;;;;3.30;1.58;;;;;;;6.83;48.44;101790.47;5085766;28;20046;-61
2021/04/17 03:56:22;;;;;;;3.33;0.85;;;;;;;6.76;48.57;101784.22;5085490;28;20024;-62
2021/04/17 03:58:47;;;;;;;2.20;1.13;;;;;;;6.81;48.65;101794.69;5085759;28;20031;-62
2021/04/17 04:01:13;;;;;;;2.58;1.25;;;;;;;6.80;48.68;101792.94;5085685;28;20028;-63
2021/04/17 04:03:39;;;;;;;4.30;1.70;;;;;;;6.78;48.91;101802.34;5085568;28;20028;-61
2021/04/17 04:06:04;;;;;;;2.72;1.50;;;;;;;6.75;48.73;101803.13;5085701;28;20055;-61
2021/04/17 04:08:30;;;;;;;2.45;1.33;;;;;;;6.72;49.03;101797.00;5085274;28;20048;-64
2021/04/17 04:10:55;;;;;;;4.18;1.35;;;;;;;6.70;48.81;101807.28;5083996;28;20031;-61
2021/04/17 04:13:21;;;;;;;3.15;1.30;;;;;;;6.66;49.01;101792.53;5085182;28;20182;-63
2021/04/17 04:15:46;;;;;;;3.55;1.40;;;;;;;6.59;48.78;101791.47;5085391;28;20078;-63
2021/04/17 04:18:12;;;;;;;3.63;1.55;;;;;;;6.56;48.96;101791.38;5085028;28;20056;-63
2021/04/17 04:20:37;;;;;;;3.90;1.50;;;;;;;6.55;48.91;101810.28;5085222;28;20020;-64
2021/04/17 04:23:03;;;;;;;4.03;1.20;;;;;;;6.57;48.89;101806.03;5085227;28;20027;-64
2021/04/17 04:25:29;;;;;;;2.70;1.30;;;;;;;6.44;48.99;101803.06;5085416;28;20032;-66
2021/04/17 04:27:55;;;;;;;4.40;1.48;;;;;;;6.41;49.08;101800.41;5083468;28;20021;-63
2021/04/17 04:30:22;;;;;;;1.88;0.95;;;;;;;6.43;48.95;101800.44;5083759;28;20451;-63
2021/04/17 04:32:47;;;;;;;2.92;1.15;;;;;;;6.42;48.90;101807.28;5085021;28;20032;-63
2021/04/17 04:35:13;;;;;;;3.92;1.52;;;;;;;6.41;48.81;101805.56;5085146;28;20119;-63
2021/04/17 04:37:38;;;;;;;5.82;1.27;;;;;;;6.37;48.84;101802.81;5084792;28;20071;-64
2021/04/17 04:40:06;;;;;;;2.67;1.10;;;;;;;6.33;49.00;101801.84;5084682;28;20048;-65
2021/04/17 04:42:35;;;;;;;3.70;1.40;;;;;;;6.24;49.37;101799.88;5083060;28;20028;-64
2021/04/17 04:45:01;;;;;;;1.73;1.10;;;;;;;6.22;49.23;101795.47;5084797;28;20088;-63
2021/04/17 04:47:26;;;;;;;4.95;1.25;;;;;;;6.18;49.21;101802.25;5084537;28;20104;-64
2021/04/17 04:49:52;;;;;;;2.47;1.33;;;;;;;6.23;49.17;101797.25;5084662;28;20017;-63
2021/04/17 04:52:18;;;;;;;3.67;1.25;;;;;;;6.25;49.30;101801.59;5084523;28;20099;-63
2021/04/17 04:54:43;;;;;;;2.47;1.25;;;;;;;6.28;49.42;101808.56;5084335;28;20090;-63
2021/04/17 04:57:08;;;;;;;4.32;1.48;;;;;;;6.35;49.36;101813.09;5084213;28;20027;-64
2021/04/17 04:59:34;;;;;;;4.32;1.60;;;;;;;6.34;49.39;101810.47;5084526;28;20013;-63
2021/04/17 05:02:01;;;;;;;3.88;1.33;;;;;;;6.32;49.46;101810.44;5084465;28;20017;-64
2021/04/17 05:04:27;;;;;;;5.60;1.42;;;;;;;6.27;49.24;101796.50;5084496;28;20027;-64
2021/04/17 05:06:52;;;;;;;4.20;1.73;;;;;;;6.28;49.60;101799.13;5084206;28;20028;-64
2021/04/17 05:09:18;;;;;;;2.95;1.17;;;;;;;6.29;49.67;101812.91;5082764;28;20150;-63
2021/04/17 05:11:43;;;;;;;4.50;1.65;;;;;;;6.26;49.75;101810.22;5084141;28;20091;-64
2021/04/17 05:14:09;;;;;;;3.40;1.65;;;;;;;6.26;49.68;101808.50;5084245;28;20033;-64
2021/04/17 05:16:34;;;;;;;4.13;1.40;;;;;;;6.23;49.93;101803.25;5084134;28;20032;-63
2021/04/17 05:18:59;;;;;;;3.90;1.00;;;;;;;6.31;49.68;101816.41;5082714;28;20477;-64
2021/04/17 05:21:25;;;;;;;2.97;1.42;;;;;;;6.27;49.69;101814.53;5084169;28;20031;-64
2021/04/17 05:23:50;;;;;;;3.53;1.55;;;;;;;6.28;49.84;101809.44;5083932;28;20024;-63
2021/04/17 05:26:18;;;;;;;4.65;1.38;;;;;;;6.29;49.65;101798.28;5083930;28;20028;-64
2021/04/17 05:28:43;;;;;;;2.88;1.45;;;;;;;6.24;50.04;101798.97;5083590;28;20092;-64
2021/04/17 05:31:08;;;;;;;4.65;1.60;;;;;;;6.33;49.99;101809.59;5082384;28;20078;-64
2021/04/17 05:33:34;;;;;;;5.35;2.28;;;;;;;6.41;49.67;101805.56;5083743;28;20025;-64
2021/04/17 05:35:59;;;;;;;2.72;1.10;;;;;;;6.44;49.81;101810.81;5083766;28;20070;-64
2021/04/17 05:38:25;;;;;;;2.17;1.50;;;;;;;6.47;49.47;101801.41;5083797;28;20047;-63
2021/04/17 05:40:50;;;;;;;5.95;1.40;;;;;;;6.51;49.61;101805.84;5083638;28;20503;-63
2021/04/17 05:43:16;;;;;;;2.80;0.93;;;;;;;6.53;49.24;101802.47;5083376;28;20020;-64
2021/04/17 05:45:41;;;;;;;3.97;1.27;;;;;;;6.48;49.44;101801.47;5083705;28;20028;-64
2021/04/17 05:48:07;;;;;;;3.85;1.13;;;;;;;6.47;49.35;101804.00;5083323;28;20050;-64
2021/04/17 05:50:32;;;;;;;4.82;1.63;;;;;;;6.40;49.26;101796.06;5083369;28;20017;-64
2021/04/17 05:52:58;;;;;;;4.00;1.63;;;;;;;6.37;49.30;101795.97;5083042;28;20032;-67
2021/04/17 05:55:23;;;;;;;2.63;1.58;;;;;;;6.38;49.46;101796.81;5083641;28;20017;-66
2021/04/17 05:57:49;;;;;;;3.42;1.13;;;;;;;6.39;49.17;101796.88;5083338;28;20268;-65
2021/04/17 06:00:14;;;;;;;4.65;1.80;;;;;;;6.39;49.31;101789.13;5083549;28;20082;-65
2021/04/17 06:02:40;;;;;;;2.58;1.42;;;;;;;6.57;49.00;101793.13;5083547;28;20088;-65
2021/04/17 06:05:05;;;;;;;4.47;1.90;;;;;;;6.62;48.99;101795.84;5083474;28;20059;-65
2021/04/17 06:07:31;;;;;;;2.97;1.60;;;;;;;6.70;48.69;101791.78;5083474;28;20035;-65
2021/04/17 06:09:56;;;;;;;3.33;1.70;;;;;;;6.75;48.56;101782.50;5081972;28;20174;-65
2021/04/17 06:12:22;;;;;;;4.47;1.63;;;;;;;6.77;48.48;101791.13;5083250;28;20032;-65
2021/04/17 06:14:47;;;;;;;3.22;1.30;;;;;;;6.82;48.06;101783.56;5082043;28;20021;-66
2021/04/17 06:17:12;;;;;;;2.47;1.40;;;;;;;6.80;48.24;101786.09;5083178;28;20032;-64
2021/04/17 06:19:38;;;;;;;3.63;1.60;;;;;;;6.91;47.77;101780.34;5083382;28;20066;-63
2021/04/17 06:22:04;;;;;;;3.72;1.55;;;;;;;6.88;47.54;101778.56;5083581;28;20025;-64
2021/04/17 06:24:29;;;;;;;5.13;1.77;;;;;;;6.89;47.82;101782.00;5116101;28;20046;-64
2021/04/17 06:26:55;;;;;;;5.22;1.67;;;;;;;7.00;47.74;101778.03;5083246;28;20025;-65
2021/04/17 06:29:20;;;;;;;3.97;1.52;;;;;;;7.07;47.53;101771.34;5083362;28;20056;-65
2021/04/17 06:31:45;;;;;;;7.95;3.28;;;;;;;7.16;47.43;101773.28;5083400;28;20027;-64
2021/04/17 06:34:11;;;;;;;4.57;1.83;;;;;;;7.35;47.25;101779.84;5083231;28;20035;-65
2021/04/17 06:36:36;;;;;;;5.10;1.65;;;;;;;7.42;46.64;101779.19;5083365;28;20048;-66
2021/04/17 06:39:05;;;;;;;3.92;2.13;;;;;;;7.48;46.69;101783.63;5083075;28;20024;-65
2021/04/17 06:41:33;;;;;;;6.65;1.98;;;;;;;7.62;46.76;101773.66;5083206;28;20072;-64
2021/04/17 06:44:02;;;;;;;2.47;1.40;;;;;;;7.77;45.98;101782.66;5083311;28;20013;-65
2021/04/17 06:46:31;;;;;;;5.68;2.00;;;;;;;7.76;45.72;101778.31;5083198;28;20063;-64
2021/04/17 06:48:59;;;;;;;8.75;1.63;;;;;;;7.72;45.88;101763.53;5082865;28;20064;-64
2021/04/17 06:51:25;;;;;;;3.75;1.52;;;;;;;7.83;45.40;101772.44;5083163;28;20033;-64
2021/04/17 06:53:52;;;;;;;4.43;1.65;;;;;;;7.89;45.42;101777.78;5083979;28;20091;-64
2021/04/17 06:56:18;;;;;;;4.03;1.50;;;;;;;8.02;45.16;101775.53;5083226;28;20491;-64
2021/04/17 06:58:44;;;;;;;5.97;1.33;;;;;;;8.07;44.76;101776.47;5082759;28;20028;-65
2021/04/17 07:01:09;;;;;;;2.63;0.85;;;;;;;8.10;43.96;101780.88;5083240;28;20021;-65
2021/04/17 07:03:35;;;;;;;7.20;1.45;;;;;;;7.99;44.13;101770.25;5084273;28;20024;-64
2021/04/17 07:06:01;;;;;;;3.60;1.65;;;;;;;8.05;44.36;101773.00;5086797;28;20068;-64
2021/04/17 07:08:26;;;;;;;2.40;1.42;;;;;;;8.16;43.43;101784.47;5086424;28;20035;-64
2021/04/17 07:10:52;;;;;;;4.40;1.88;;;;;;;8.25;43.29;101777.75;5085378;28;20016;-64
2021/04/17 07:13:17;;;;;;;2.08;1.35;;;;;;;8.53;42.68;101786.19;5085057;28;20058;-64
2021/04/17 07:15:44;;;;;;;2.00;1.40;;;;;;;8.63;42.47;101782.09;5086639;28;20021;-64
2021/04/17 07:18:25;;;;;;;5.88;1.65;;;;;;;8.87;41.92;101781.75;5086321;28;20020;-69
2021/04/17 07:20:51;;;;;;;3.03;1.30;;;;;;;9.16;41.52;101783.19;5086593;28;20097;-69
2021/04/17 07:23:38;;;;;;;2.25;1.17;;;;;;;9.45;40.72;101772.50;5086476;28;20074;-69
2021/04/17 07:26:12;;;;;;;4.18;1.20;;;;;;;9.65;40.37;101780.63;5086438;28;20082;-70
2021/04/17 07:28:55;;;;;;;7.85;1.60;;;;;;;9.85;39.59;101774.91;5085864;28;20045;-65
2021/04/17 07:31:25;;;;;;;2.88;1.10;;;;;;;9.98;38.44;101775.13;5086337;28;20110;-70
2021/04/17 07:33:51;;;;;;;4.95;1.73;;;;;;;10.07;38.70;101770.06;5086355;28;20032;-71
2021/04/17 07:36:19;;;;;;;2.80;1.35;;;;;;;10.42;37.85;101771.44;5086320;28;20024;-71
2021/04/17 07:38:46;;;;;;;3.13;1.13;;;;;;;10.88;37.81;101768.63;5086083;28;20016;-65
2021/04/17 07:41:13;;;;;;;2.22;1.20;;;;;;;11.36;36.51;101781.28;5084748;28;20024;-64
2021/04/17 07:43:47;;;;;;;3.15;1.23;;;;;;;11.60;35.49;101771.97;5085790;28;20047;-67
2021/04/17 07:46:13;;;;;;;4.13;1.38;;;;;;;11.94;34.71;101787.00;5086339;28;20486;-67
2021/04/17 07:48:38;;;;;;;2.47;1.10;;;;;;;11.88;34.03;101773.94;5085828;28;20553;-66
2021/04/17 07:51:07;;;;;;;1.73;1.20;;;;;;;11.87;34.37;101783.47;5086152;28;20020;-67
2021/04/17 07:53:34;;;;;;;3.17;0.93;;;;;;;11.96;33.73;101787.03;5086340;28;20021;-67
2021/04/17 07:56:25;;;;;;;3.28;1.40;;;;;;;12.03;33.77;101776.66;5086258;28;20024;-68
2021/04/17 07:58:52;;;;;;;6.85;1.80;;;;;;;12.22;33.75;101770.78;5085771;28;20092;-67
2021/04/17 08:01:20;;;;;;;4.70;1.38;;;;;;;12.68;33.24;101780.59;5085909;28;20074;-66
2021/04/17 08:03:47;;;;;;;4.25;1.40;;;;;;;12.96;32.29;101767.66;5086262;28;20028;-68
2021/04/17 08:06:13;;;;;;;3.47;1.33;;;;;;;13.29;31.30;101777.31;5084686;28;20032;-67
2021/04/17 08:08:40;;;;;;;3.78;1.35;;;;;;;13.46;30.79;101761.69;5085648;28;20040;-67
2021/04/17 08:11:07;;;;;;;3.70;1.40;;;;;;;13.63;30.53;101772.16;5085651;28;20039;-68
2021/04/17 08:13:37;;;;;;;2.92;1.10;;;;;;;13.81;29.16;101773.94;5085780;28;20047;-68
2021/04/17 08:16:03;;;;;;;3.67;1.10;;;;;;;13.59;28.68;101768.72;5085113;28;20032;-67
2021/04/17 08:18:30;;;;;;;4.68;1.38;;;;;;;13.31;29.90;101775.56;5085336;28;20042;-66
2021/04/17 08:20:55;;;;;;;4.00;1.67;;;;;;;13.26;29.77;101768.59;5085652;28;20021;-66
2021/04/17 08:23:21;;;;;;;1.75;0.95;;;;;;;13.38;29.77;101778.22;5085408;28;20031;-67
2021/04/17 08:25:53;;;;;;;3.28;1.30;;;;;;;13.49;28.98;101772.13;5085515;28;20020;-66
2021/04/17 08:28:21;;;;;;;3.72;1.60;;;;;;;13.64;29.04;101784.38;5085013;28;20027;-64
2021/04/17 08:30:47;;;;;;;6.05;1.10;;;;;;;13.72;27.91;101776.53;5084824;28;20032;-64
2021/04/17 08:33:19;;;;;;;3.50;1.10;;;;;;;13.62;29.05;101767.81;5085061;28;20048;-64
2021/04/17 08:35:46;;;;;;;2.60;1.08;;;;;;;13.60;29.20;101778.25;5083563;28;20024;-64
2021/04/17 08:38:13;;;;;;;3.60;1.75;;;;;;;13.59;29.70;101776.53;5084888;28;20461;-64
2021/04/17 08:40:47;;;;;;;2.92;1.40;;;;;;;13.86;29.38;101780.03;5084806;28;20477;-63
2021/04/17 08:43:16;;;;;;;2.67;1.40;;;;;;;13.93;29.02;101778.25;5084652;28;20029;-66
2021/04/17 08:46:02;;;;;;;2.05;1.10;;;;;;;13.90;28.80;101780.03;5084902;28;20048;-64
2021/04/17 08:48:40;;;;;;;6.43;1.30;;;;;;;14.21;29.37;101778.25;5084370;28;20052;-65
2021/04/17 08:51:21;;;;;;;2.35;1.05;;;;;;;14.70;28.62;101770.25;5084753;28;20256;-65
2021/04/17 08:54:11;;;;;;;4.50;1.52;;;;;;;14.88;27.89;101764.13;5084637;28;20021;-65
2021/04/17 08:56:49;;;;;;;3.50;1.25;;;;;;;14.99;28.01;101771.91;5081389;28;20037;-63
2021/04/17 08:59:19;;;;;;;3.30;1.00;;;;;;;15.43;27.51;101769.06;5084454;28;20388;-63
2021/04/17 09:01:48;;;;;;;1.98;1.10;;;;;;;15.67;26.64;101764.53;5084545;28;20088;-63
2021/04/17 09:04:14;;;;;;;3.05;1.23;;;;;;;15.50;26.54;101760.28;5084485;28;20241;-64
2021/04/17 09:06:44;;;;;;;5.00;1.48;;;;;;;15.13;27.35;101752.69;5084481;28;20035;-63
2021/04/17 09:09:30;;;;;;;3.83;1.30;;;;;;;15.01;28.00;101751.88;5084206;28;20724;-63
2021/04/17 09:12:13;;;;;;;3.40;1.20;;;;;;;14.71;28.04;101751.97;5083986;28;20032;-66
2021/04/17 09:14:42;;;;;;;3.03;1.10;;;;;;;14.74;27.92;101743.25;5082754;28;20012;-64
2021/04/17 09:17:28;;;;;;;2.08;0.77;;;;;;;14.79;27.28;101736.28;5084050;28;20020;-67
2021/04/17 09:19:54;;;;;;;2.10;1.00;;;;;;;14.16;27.93;101742.56;5082920;28;20027;-65
2021/04/17 09:22:30;;;;;;;4.25;1.40;;;;;;;13.71;28.68;101756.50;5084236;28;20028;-65
2021/04/17 09:25:05;;;;;;;2.00;1.17;;;;;;;13.39;29.02;101753.84;5084188;28;20042;-66
2021/04/17 09:27:36;;;;;;;2.78;1.20;;;;;;;13.03;29.51;101747.69;5082729;28;20030;-67
2021/04/17 09:30:04;;;;;;;3.10;1.05;;;;;;;12.81;30.20;101765.84;5084282;28;20384;-66
2021/04/17 09:32:42;;;;;;;4.03;1.20;;;;;;;12.61;30.21;101745.81;5084226;28;20017;-66
2021/04/17 09:35:25;;;;;;;3.42;1.38;;;;;;;12.44;30.60;101752.66;5083579;28;20418;-66
2021/04/17 09:38:29;;;;;;;3.13;1.20;;;;;;;12.42;30.79;101752.66;5082534;28;20040;-66
2021/04/17 09:40:55;;;;;;;4.03;2.13;;;;;;;12.69;30.39;101745.84;5061295;28;20568;-67
2021/04/17 09:43:31;;;;;;;1.63;1.00;;;;;;;12.64;30.09;101747.53;5061023;28;20076;-67
2021/04/17 09:46:00;;;;;;;2.03;1.27;;;;;;;12.39;30.34;101743.09;5061394;28;20308;-67
2021/04/17 09:48:26;;;;;;;2.92;1.23;;;;;;;12.25;30.28;101732.56;5060819;28;20049;-66
2021/04/17 09:50:57;;;;;;;3.28;0.95;;;;;;;12.23;30.88;101733.44;5061167;28;20416;-67
2021/04/17 09:53:29;;;;;;;2.28;1.00;;;;;;;12.14;30.87;101731.66;5061131;28;20497;-67
2021/04/17 09:55:56;;;;;;;3.03;1.05;;;;;;;12.14;30.85;101750.75;5061136;28;20162;-66
2021/04/17 09:58:22;;;;;;;3.30;1.20;;;;;;;12.33;30.54;101742.19;5043973;28;20485;-67
2021/04/17 10:00:48;;;;;;;2.35;1.05;;;;;;;12.27;30.90;101732.59;5061197;28;20021;-66
2021/04/17 10:03:31;;;;;;;2.35;1.33;;;;;;;12.22;30.75;101739.53;5061002;28;20029;-68
2021/04/17 10:05:57;;;;;;;2.17;1.30;;;;;;;12.27;30.52;101719.56;5060869;28;20096;-66
2021/04/17 10:08:29;;;;;;;3.97;1.10;;;;;;;12.42;30.75;101730.94;5060875;28;20365;-66
2021/04/17 10:10:55;;;;;;;4.53;1.38;;;;;;;12.65;30.47;101718.03;5049318;28;20040;-67
2021/04/17 10:13:40;;;;;;;2.22;1.10;;;;;;;12.79;30.24;101705.06;5083522;28;20021;-66
2021/04/17 10:16:07;;;;;;;4.18;0.90;;;;;;;12.80;29.89;101721.53;5083915;28;20028;-66
2021/04/17 10:18:34;;;;;;;5.25;1.27;;;;;;;12.70;30.13;101703.28;5083522;28;20032;-66
2021/04/17 10:21:00;;;;;;;3.85;1.48;;;;;;;12.64;30.31;101701.53;5083848;28;20020;-66
2021/04/17 10:23:26;;;;;;;2.55;1.10;;;;;;;12.71;30.55;101701.56;5083715;28;20035;-66
2021/04/17 10:25:52;;;;;;;1.98;1.00;;;;;;;12.81;30.36;101692.03;5083544;28;20033;-66
2021/04/17 10:28:18;;;;;;;4.22;0.88;;;;;;;13.21;30.26;101697.31;5083271;28;20024;-65
2021/04/17 10:30:46;;;;;;;4.43;1.48;;;;;;;13.73;29.48;101681.72;5083492;28;20031;-66
2021/04/17 10:33:16;;;;;;;2.85;1.33;;;;;;;14.28;28.35;101684.19;5083607;28;20562;-65
2021/04/17 10:35:42;;;;;;;2.33;1.02;;;;;;;14.23;28.07;101698.13;5083606;28;20027;-65
2021/04/17 10:38:07;;;;;;;3.60;1.30;;;;;;;14.16;28.25;101690.31;5083900;28;20029;-65
2021/04/17 10:40:33;;;;;;;4.88;1.35;;;;;;;14.01;28.50;101684.25;5087428;28;20076;-65
2021/04/17 10:43:03;;;;;;;8.10;1.35;;;;;;;13.98;28.82;101679.03;5087201;28;20107;-66
2021/04/17 10:45:28;;;;;;;4.72;1.55;;;;;;;13.94;28.92;101683.44;5087542;28;20092;-65
2021/04/17 10:48:05;;;;;;;1.92;1.10;;;;;;;13.78;28.97;101677.34;5087105;28;20048;-65
2021/04/17 10:50:34;;;;;;;2.55;0.93;;;;;;;13.58;29.35;101679.97;5087273;28;20031;-67
2021/04/17 10:53:15;;;;;;;3.17;1.10;;;;;;;13.58;29.24;101688.66;5087320;28;20024;-67
2021/04/17 10:55:49;;;;;;;4.50;1.00;;;;;;;13.39;29.49;101679.94;5087045;28;20458;-66
2021/04/17 10:58:22;;;;;;;3.67;1.30;;;;;;;13.33;29.78;101670.38;5087035;28;20020;-66
2021/04/17 11:00:55;;;;;;;4.00;1.00;;;;;;;13.20;30.12;101676.44;5087062;28;20336;-64
2021/04/17 11:03:21;;;;;;;6.05;1.65;;;;;;;13.12;30.29;101682.53;5087127;28;20020;-65
2021/04/17 11:05:47;;;;;;;3.28;1.55;;;;;;;13.40;30.26;101681.69;5086900;28;20546;-66
2021/04/17 11:08:24;;;;;;;3.13;1.27;;;;;;;13.48;29.99;101669.50;5086848;28;20017;-66
2021/04/17 11:10:50;;;;;;;4.30;1.42;;;;;;;13.62;29.58;101676.50;5087056;28;20048;-65
2021/04/17 11:13:29;;;;;;;2.85;1.30;;;;;;;13.71;29.41;101686.03;5086594;28;20027;-65
2021/04/17 11:15:55;;;;;;;4.25;1.55;;;;;;;13.85;29.43;101684.28;5086779;28;20021;-67
2021/04/17 11:18:21;;;;;;;2.15;1.30;;;;;;;13.86;29.01;101675.59;5086926;28;20031;-67
2021/04/17 11:20:49;;;;;;;1.65;1.02;;;;;;;13.94;29.01;101675.59;5086781;28;20457;-67
2021/04/17 11:23:35;;;;;;;2.53;1.20;;;;;;;14.01;28.50;101673.81;5085293;28;20389;-67
2021/04/17 11:26:03;;;;;;;4.13;1.40;;;;;;;13.97;28.75;101672.97;5086775;28;20020;-67
2021/04/17 11:28:29;;;;;;;5.32;1.63;;;;;;;13.91;28.44;101691.25;5086041;28;20279;-68
2021/04/17 11:30:55;;;;;;;2.55;0.95;;;;;;;13.78;27.31;101672.13;5086421;28;20017;-67
2021/04/17 11:33:22;;;;;;;5.95;1.40;;;;;;;13.63;27.43;101673.88;5086456;28;20027;-67
2021/04/17 11:35:47;;;;;;;1.90;1.05;;;;;;;13.66;27.33;101673.00;5086422;28;20036;-67